Terminal Aerodrome Forecast
Issued by NWS Albany, NY

Home | Current Version | Previous Version | Text Only | Print | Product List | Glossary On
Versions: 1 2 3 4 5 6 7 8 9 10 11 12 13 14 15 16 17 18 19 20 21 22 23 24 25 26 27 28 29
468
FTUS41 KALY 030230 AAA
TAFPOU
TAF AMD
KPOU 030230Z 0303/0324 00000KT P6SM BKN023
     FM031000 VRB03KT 3SM -RA BR BKN009 OVC035
     FM032100 04003KT P6SM OVC035=

USA.gov is the U.S. government's official web portal to all federal, state and local government web resources and services.